Sektagli, Russia
Current Conditions -  °F | °C
As of 6:00 PM on Friday 24 Oct 2014 (Local Time) from UHBB Reporting Station
Smoke Smoke  
Wind Chill:   Ceiling: Unl
Heat Index:   Visibility: 3mi
Dew Point: -3°   Wind: 9mph
Humidity: 57%   Direction: 200°SSW
Pressure: 29.77"   Gusts: NA
Location:  50.42°N, 131°E
Report Text: UHBB 240800Z 20004MPS 140V230 5000 FU NSC 05/M03 Q1008 TEMPO1500 FU RMK QFE739/0985 36090060
Loading
Personal Weather Stations






























Interactive Weather Map
Tropical Storm Tracking
New forecast layout! Learn more

10-Day Weather Forecast

Advertisements
Track Severe Weather on mobile